sensor_id;sensor_type;location;lat;lon;timestamp;temperature;humidity
20929;DHT22;21895;47.072;15.132;2023-07-30T18:27:07;31.40;96.70
20929;DHT22;21895;47.072;15.132;2023-07-30T18:29:34;21.10;99.90
20929;DHT22;21895;47.072;15.132;2023-07-30T18:32:08;20.90;99.90
20929;DHT22;21895;47.072;15.132;2023-07-30T18:34:35;20.90;99.90
20929;DHT22;21895;47.072;15.132;2023-07-30T18:37:04;21.00;99.90
20929;DHT22;21895;47.072;15.132;2023-07-30T18:39:31;21.00;99.90
20929;DHT22;21895;47.072;15.132;2023-07-30T18:41:59;21.00;99.90
20929;DHT22;21895;47.072;15.132;2023-07-30T18:44:27;21.00;99.90
20929;DHT22;21895;47.072;15.132;2023-07-30T18:46:55;21.00;99.90
20929;DHT22;21895;47.072;15.132;2023-07-30T18:49:29;20.90;99.90
20929;DHT22;21895;47.072;15.132;2023-07-30T18:51:56;20.90;99.90
20929;DHT22;21895;47.072;15.132;2023-07-30T18:54:22;20.90;99.90
20929;DHT22;21895;47.072;15.132;2023-07-30T18:56:49;20.80;99.90
20929;DHT22;21895;47.072;15.132;2023-07-30T18:59:16;20.80;99.90
20929;DHT22;21895;47.072;15.132;2023-07-30T19:01:43;20.80;99.90
20929;DHT22;21895;47.072;15.132;2023-07-30T19:04:09;20.70;99.90
20929;DHT22;21895;47.072;15.132;2023-07-30T19:06:36;20.60;99.90
20929;DHT22;21895;47.072;15.132;2023-07-30T19:09:03;20.60;99.90
20929;DHT22;21895;47.072;15.132;2023-07-30T19:11:29;20.70;99.90
20929;DHT22;21895;47.072;15.132;2023-07-30T19:13:56;20.70;99.90
20929;DHT22;21895;47.072;15.132;2023-07-30T19:16:22;20.90;99.90
20929;DHT22;21895;47.072;15.132;2023-07-30T19:18:49;20.70;99.90
20929;DHT22;21895;47.072;15.132;2023-07-30T19:21:15;20.60;99.90
20929;DHT22;21895;47.072;15.132;2023-07-30T19:23:42;20.40;99.90
20929;DHT22;21895;47.072;15.132;2023-07-30T19:26:09;20.40;99.90
20929;DHT22;21895;47.072;15.132;2023-07-30T19:28:35;20.40;99.90
20929;DHT22;21895;47.072;15.132;2023-07-30T19:31:08;20.30;99.90
20929;DHT22;21895;47.072;15.132;2023-07-30T19:33:36;20.30;99.90
20929;DHT22;21895;47.072;15.132;2023-07-30T19:36:04;20.30;99.90
20929;DHT22;21895;47.072;15.132;2023-07-30T19:38:31;20.30;99.90
20929;DHT22;21895;47.072;15.132;2023-07-30T19:40:58;20.30;99.90
20929;DHT22;21895;47.072;15.132;2023-07-30T19:43:24;20.20;99.90
20929;DHT22;21895;47.072;15.132;2023-07-30T19:45:52;20.10;99.90
20929;DHT22;21895;47.072;15.132;2023-07-30T19:48:22;20.10;99.90
20929;DHT22;21895;47.072;15.132;2023-07-30T19:50:50;20.10;99.90
20929;DHT22;21895;47.072;15.132;2023-07-30T19:53:17;20.10;99.90
20929;DHT22;21895;47.072;15.132;2023-07-30T19:55:45;20.10;99.90
20929;DHT22;21895;47.072;15.132;2023-07-30T19:58:28;20.10;99.90
20929;DHT22;21895;47.072;15.132;2023-07-30T20:00:57;19.90;99.90
20929;DHT22;21895;47.072;15.132;2023-07-30T20:03:25;19.80;99.90
20929;DHT22;21895;47.072;15.132;2023-07-30T20:06:04;19.80;99.90
20929;DHT22;21895;47.072;15.132;2023-07-30T20:08:32;19.70;99.90
20929;DHT22;21895;47.072;15.132;2023-07-30T20:11:00;19.70;99.90
20929;DHT22;21895;47.072;15.132;2023-07-30T20:13:28;19.60;99.90
20929;DHT22;21895;47.072;15.132;2023-07-30T20:15:55;19.60;99.90
20929;DHT22;21895;47.072;15.132;2023-07-30T20:18:22;19.60;99.90
20929;DHT22;21895;47.072;15.132;2023-07-30T20:20:50;19.60;99.90
20929;DHT22;21895;47.072;15.132;2023-07-30T20:23:17;19.60;99.90
20929;DHT22;21895;47.072;15.132;2023-07-30T20:25:43;19.60;99.90
20929;DHT22;21895;47.072;15.132;2023-07-30T20:28:10;19.50;99.90
20929;DHT22;21895;47.072;15.132;2023-07-30T20:30:37;19.60;99.90
20929;DHT22;21895;47.072;15.132;2023-07-30T20:33:04;19.60;99.90
20929;DHT22;21895;47.072;15.132;2023-07-30T20:35:31;19.50;99.90
20929;DHT22;21895;47.072;15.132;2023-07-30T20:37:58;19.30;99.90
20929;DHT22;21895;47.072;15.132;2023-07-30T20:40:28;19.20;99.90
20929;DHT22;21895;47.072;15.132;2023-07-30T20:42:55;19.10;99.90
20929;DHT22;21895;47.072;15.132;2023-07-30T20:45:22;19.10;99.90
20929;DHT22;21895;47.072;15.132;2023-07-30T20:47:50;19.10;99.90
20929;DHT22;21895;47.072;15.132;2023-07-30T20:50:18;19.10;99.90
20929;DHT22;21895;47.072;15.132;2023-07-30T20:52:46;18.90;99.90
20929;DHT22;21895;47.072;15.132;2023-07-30T20:55:15;18.80;99.90
20929;DHT22;21895;47.072;15.132;2023-07-30T20:57:43;18.70;99.90
20929;DHT22;21895;47.072;15.132;2023-07-30T21:00:10;18.60;99.90
20929;DHT22;21895;47.072;15.132;2023-07-30T21:02:38;18.50;99.90
20929;DHT22;21895;47.072;15.132;2023-07-30T21:05:05;18.50;99.90
20929;DHT22;21895;47.072;15.132;2023-07-30T21:07:32;18.50;99.90
20929;DHT22;21895;47.072;15.132;2023-07-30T21:09:58;18.50;99.90
20929;DHT22;21895;47.072;15.132;2023-07-30T21:12:25;18.60;99.90
20929;DHT22;21895;47.072;15.132;2023-07-30T21:14:52;18.70;99.90
20929;DHT22;21895;47.072;15.132;2023-07-30T21:17:19;18.60;99.90
20929;DHT22;21895;47.072;15.132;2023-07-30T21:19:46;18.40;99.90
20929;DHT22;21895;47.072;15.132;2023-07-30T21:22:13;18.40;99.90
20929;DHT22;21895;47.072;15.132;2023-07-30T21:24:40;18.30;99.90
20929;DHT22;21895;47.072;15.132;2023-07-30T21:27:07;18.30;99.90
20929;DHT22;21895;47.072;15.132;2023-07-30T21:29:33;18.20;99.90
20929;DHT22;21895;47.072;15.132;2023-07-30T21:32:00;18.10;99.90
20929;DHT22;21895;47.072;15.132;2023-07-30T21:34:26;18.10;99.90
20929;DHT22;21895;47.072;15.132;2023-07-30T21:36:53;18.10;99.90
20929;DHT22;21895;47.072;15.132;2023-07-30T21:39:19;18.00;99.90
20929;DHT22;21895;47.072;15.132;2023-07-30T21:41:46;18.00;99.90
20929;DHT22;21895;47.072;15.132;2023-07-30T21:44:13;17.90;99.90
20929;DHT22;21895;47.072;15.132;2023-07-30T21:46:42;17.90;99.90
20929;DHT22;21895;47.072;15.132;2023-07-30T21:49:09;17.90;99.90
20929;DHT22;21895;47.072;15.132;2023-07-30T21:51:36;17.70;99.90
20929;DHT22;21895;47.072;15.132;2023-07-30T21:54:02;17.60;99.90
20929;DHT22;21895;47.072;15.132;2023-07-30T21:56:29;17.60;99.90
20929;DHT22;21895;47.072;15.132;2023-07-30T21:58:55;17.60;99.90
20929;DHT22;21895;47.072;15.132;2023-07-30T22:01:22;17.50;99.90
20929;DHT22;21895;47.072;15.132;2023-07-30T22:03:48;17.50;99.90
20929;DHT22;21895;47.072;15.132;2023-07-30T22:06:15;17.30;99.90
20929;DHT22;21895;47.072;15.132;2023-07-30T22:08:42;17.30;99.90
20929;DHT22;21895;47.072;15.132;2023-07-30T22:11:16;17.30;99.90
20929;DHT22;21895;47.072;15.132;2023-07-30T22:13:43;17.30;99.90
20929;DHT22;21895;47.072;15.132;2023-07-30T22:16:10;17.30;99.90
20929;DHT22;21895;47.072;15.132;2023-07-30T22:18:37;17.30;99.90
20929;DHT22;21895;47.072;15.132;2023-07-30T22:21:07;17.30;99.90
20929;DHT22;21895;47.072;15.132;2023-07-30T22:23:34;17.10;99.90
20929;DHT22;21895;47.072;15.132;2023-07-30T22:26:00;17.10;99.90
20929;DHT22;21895;47.072;15.132;2023-07-30T22:28:27;17.10;99.90
20929;DHT22;21895;47.072;15.132;2023-07-30T22:30:54;17.00;99.90
20929;DHT22;21895;47.072;15.132;2023-07-30T22:33:20;17.00;99.90
20929;DHT22;21895;47.072;15.132;2023-07-30T22:35:55;16.90;99.90
20929;DHT22;21895;47.072;15.132;2023-07-30T22:38:22;16.80;99.90
20929;DHT22;21895;47.072;15.132;2023-07-30T22:40:49;16.70;99.90
20929;DHT22;21895;47.072;15.132;2023-07-30T22:43:15;16.70;99.90
20929;DHT22;21895;47.072;15.132;2023-07-30T22:45:42;16.70;99.90
20929;DHT22;21895;47.072;15.132;2023-07-30T22:48:09;16.70;99.90
20929;DHT22;21895;47.072;15.132;2023-07-30T22:50:37;16.60;99.90
20929;DHT22;21895;47.072;15.132;2023-07-30T22:53:03;16.60;99.90
20929;DHT22;21895;47.072;15.132;2023-07-30T22:55:30;16.70;99.90
20929;DHT22;21895;47.072;15.132;2023-07-30T22:57:57;16.60;99.90
20929;DHT22;21895;47.072;15.132;2023-07-30T23:00:23;16.60;99.90
20929;DHT22;21895;47.072;15.132;2023-07-30T23:02:50;16.50;99.90
20929;DHT22;21895;47.072;15.132;2023-07-30T23:05:17;16.40;99.90
20929;DHT22;21895;47.072;15.132;2023-07-30T23:07:43;16.50;99.90
20929;DHT22;21895;47.072;15.132;2023-07-30T23:10:10;16.60;99.90
20929;DHT22;21895;47.072;15.132;2023-07-30T23:12:37;16.50;99.90
20929;DHT22;21895;47.072;15.132;2023-07-30T23:15:03;16.50;99.90
20929;DHT22;21895;47.072;15.132;2023-07-30T23:17:30;16.50;99.90
20929;DHT22;21895;47.072;15.132;2023-07-30T23:19:57;16.40;99.90
20929;DHT22;21895;47.072;15.132;2023-07-30T23:22:24;16.40;99.90
20929;DHT22;21895;47.072;15.132;2023-07-30T23:24:50;16.40;99.90
20929;DHT22;21895;47.072;15.132;2023-07-30T23:27:17;16.50;99.90
20929;DHT22;21895;47.072;15.132;2023-07-30T23:29:44;16.40;99.90
20929;DHT22;21895;47.072;15.132;2023-07-30T23:32:12;16.40;99.90
20929;DHT22;21895;47.072;15.132;2023-07-30T23:34:38;16.50;99.90
20929;DHT22;21895;47.072;15.132;2023-07-30T23:37:05;16.60;99.90
20929;DHT22;21895;47.072;15.132;2023-07-30T23:39:31;16.70;99.90
20929;DHT22;21895;47.072;15.132;2023-07-30T23:41:58;16.60;99.90
20929;DHT22;21895;47.072;15.132;2023-07-30T23:44:24;16.50;99.90
20929;DHT22;21895;47.072;15.132;2023-07-30T23:46:51;16.50;99.90
20929;DHT22;21895;47.072;15.132;2023-07-30T23:49:17;16.60;99.90
20929;DHT22;21895;47.072;15.132;2023-07-30T23:51:44;16.60;99.90
20929;DHT22;21895;47.072;15.132;2023-07-30T23:54:11;16.50;99.90
20929;DHT22;21895;47.072;15.132;2023-07-30T23:56:37;16.40;99.90
20929;DHT22;21895;47.072;15.132;2023-07-30T23:59:04;16.30;99.90
